createdAt,value
2022-09-17T00:06:38.945Z,46.71
2022-09-17T00:13:27.628Z,46.69
2022-09-17T00:20:13.894Z,46.56
2022-09-17T00:26:59.855Z,46.30
2022-09-17T00:33:48.053Z,46.79
2022-09-17T00:40:33.584Z,46.76
2022-09-17T00:47:26.356Z,46.94
2022-09-17T00:54:15.254Z,46.81
2022-09-17T01:01:00.638Z,46.48
2022-09-17T01:08:05.657Z,46.30
2022-09-17T01:15:15.945Z,46.67
2022-09-17T01:22:08.504Z,46.69
2022-09-17T01:29:04.676Z,47.02
2022-09-17T01:36:03.767Z,47.12
2022-09-17T01:42:59.687Z,47.30
2022-09-17T01:49:46.069Z,47.26
2022-09-17T01:56:40.739Z,47.37
2022-09-17T02:03:30.732Z,47.59
2022-09-17T02:10:21.230Z,47.95
2022-09-17T02:17:19.289Z,48.16
2022-09-17T02:24:17.943Z,48.31
2022-09-17T02:31:03.382Z,48.42
2022-09-17T02:37:53.201Z,48.65
2022-09-17T02:44:50.476Z,48.64
2022-09-17T03:05:28.191Z,49.43
2022-09-17T03:12:15.327Z,49.88
2022-09-17T03:19:00.783Z,49.67
2022-09-17T03:25:49.604Z,50.13
2022-09-17T03:32:34.989Z,49.92
2022-09-17T03:39:20.405Z,49.93
2022-09-17T03:46:08.561Z,49.63
2022-09-17T03:52:53.964Z,49.58
2022-09-17T03:59:39.886Z,49.40
2022-09-17T04:06:28.070Z,49.50
2022-09-17T04:13:13.855Z,49.31
2022-09-17T04:19:59.224Z,48.84
2022-09-17T04:26:47.369Z,49.12
2022-09-17T04:33:32.961Z,48.91
2022-09-17T04:40:18.717Z,48.92
2022-09-17T04:47:06.939Z,49.06
2022-09-17T04:53:52.333Z,48.86
2022-09-17T05:00:38.077Z,48.66
2022-09-17T05:07:26.369Z,48.87
2022-09-17T05:14:11.937Z,48.99
2022-09-17T05:20:57.313Z,49.26
2022-09-17T05:27:45.565Z,49.46
2022-09-17T05:34:30.942Z,49.29
2022-09-17T05:41:16.956Z,49.52
2022-09-17T05:48:06.737Z,49.85
2022-09-17T05:54:52.138Z,49.51
2022-09-17T06:01:37.534Z,49.65
2022-09-17T06:08:25.775Z,49.65
2022-09-17T06:15:14.645Z,49.88
2022-09-17T06:21:59.985Z,49.89
2022-09-17T06:28:48.753Z,49.86
2022-09-17T06:35:34.136Z,50.31
2022-09-17T06:42:19.480Z,49.86
2022-09-17T06:49:08.016Z,50.31
2022-09-17T06:55:53.563Z,49.87
2022-09-17T07:02:38.904Z,49.86
2022-09-17T07:09:26.980Z,49.71
2022-09-17T07:16:14.136Z,49.42
2022-09-17T07:22:59.977Z,49.36
2022-09-17T07:29:47.923Z,49.40
2022-09-17T07:36:33.268Z,49.08
2022-09-17T07:43:18.607Z,49.01
2022-09-17T07:50:06.865Z,49.15
2022-09-17T07:56:52.207Z,48.52
2022-09-17T08:03:37.901Z,48.56
2022-09-17T08:10:27.232Z,48.39
2022-09-17T08:17:13.052Z,48.34
2022-09-17T08:23:58.453Z,47.96
2022-09-17T08:30:46.507Z,47.37
2022-09-17T08:37:32.929Z,47.57
2022-09-17T08:44:27.932Z,47.09
2022-09-17T08:51:34.701Z,47.27
2022-09-17T08:58:54.081Z,47.19
2022-09-17T09:05:47.536Z,46.82
2022-09-17T09:12:39.190Z,46.75
2022-09-17T09:19:28.149Z,45.96
2022-09-17T09:26:21.117Z,45.83
2022-09-17T09:33:17.932Z,45.99
2022-09-17T09:40:18.617Z,45.88
2022-09-17T09:47:28.220Z,45.27
2022-09-17T09:54:39.445Z,44.77
2022-09-17T10:01:25.855Z,43.91
2022-09-17T10:08:16.577Z,44.09
2022-09-17T10:15:28.577Z,44.71
2022-09-17T10:22:30.345Z,45.78
2022-09-17T10:29:20.066Z,46.61
2022-09-17T10:36:11.464Z,47.78
2022-09-17T10:43:26.005Z,47.30
2022-09-17T10:50:21.270Z,47.53
2022-09-17T10:57:11.402Z,47.53
2022-09-17T11:04:25.544Z,47.65
2022-09-17T11:11:17.848Z,47.58
2022-09-17T11:18:28.981Z,46.67
2022-09-17T11:25:40.452Z,46.54
2022-09-17T11:32:59.160Z,46.45
2022-09-17T11:39:55.420Z,46.66
2022-09-17T11:46:49.486Z,46.28
2022-09-17T11:53:40.603Z,45.71
2022-09-17T12:00:32.212Z,44.92
2022-09-17T12:07:38.801Z,44.54
2022-09-17T12:14:29.271Z,44.28
2022-09-17T12:21:24.080Z,43.55
2022-09-17T12:28:14.677Z,43.00
2022-09-17T12:35:13.868Z,43.22
2022-09-17T12:42:15.401Z,42.84
2022-09-17T12:49:30.714Z,43.25
2022-09-17T12:56:33.238Z,42.03
2022-09-17T13:03:29.177Z,41.33
2022-09-17T13:11:09.441Z,40.85
2022-09-17T13:18:22.990Z,40.58
2022-09-17T13:25:15.400Z,40.79
2022-09-17T13:32:01.938Z,40.77
2022-09-17T13:38:47.397Z,40.59
2022-09-17T13:45:36.475Z,40.06
2022-09-17T13:52:40.190Z,40.33
2022-09-17T13:59:30.183Z,39.81
2022-09-17T14:06:59.675Z,40.18
2022-09-17T14:13:47.371Z,39.94
2022-09-17T14:20:36.475Z,40.06
2022-09-17T14:27:52.299Z,40.87
2022-09-17T14:34:38.350Z,40.38
2022-09-17T14:41:27.931Z,40.59
2022-09-17T14:48:32.662Z,40.84
2022-09-17T14:55:24.119Z,40.97
2022-09-17T15:02:41.426Z,41.14
2022-09-17T15:09:30.447Z,41.09
2022-09-17T15:16:25.299Z,41.07
2022-09-17T15:23:16.995Z,41.22
2022-09-17T15:30:08.576Z,41.01
2022-09-17T15:37:20.175Z,40.87
2022-09-17T15:44:29.770Z,42.38
2022-09-17T15:51:29.697Z,43.10
2022-09-17T15:58:27.193Z,43.77
2022-09-17T16:05:54.203Z,44.09
2022-09-17T16:12:44.868Z,44.31
2022-09-17T16:19:30.189Z,44.29
2022-09-17T16:26:21.160Z,45.15
2022-09-17T16:33:09.550Z,45.58
2022-09-17T16:39:55.238Z,45.73
2022-09-17T16:46:40.650Z,45.45
2022-09-17T16:53:28.837Z,45.65
2022-09-17T17:00:19.520Z,44.85
2022-09-17T17:07:05.369Z,45.10
2022-09-17T17:13:53.297Z,45.19
2022-09-17T17:20:38.841Z,45.30
2022-09-17T17:27:24.176Z,44.99
2022-09-17T17:34:12.519Z,45.16
2022-09-17T17:41:07.663Z,45.67
2022-09-17T17:47:53.124Z,45.36
2022-09-17T17:54:41.308Z,45.41
2022-09-17T18:01:30.599Z,45.79
2022-09-17T18:08:16.013Z,45.20
2022-09-17T18:15:04.067Z,45.41
2022-09-17T18:21:49.625Z,45.63
2022-09-17T18:28:37.641Z,45.84
2022-09-17T18:35:25.640Z,46.18
2022-09-17T18:42:11.311Z,46.45
2022-09-17T18:48:57.777Z,46.48
2022-09-17T18:55:49.756Z,46.96
2022-09-17T19:02:36.192Z,46.90
2022-09-17T19:09:21.565Z,46.77
2022-09-17T19:16:10.959Z,46.47
2022-09-17T19:22:56.372Z,46.12
2022-09-17T19:29:41.721Z,46.38
2022-09-17T19:36:30.231Z,46.37
2022-09-17T19:43:15.771Z,46.43
2022-09-17T19:50:01.177Z,46.46
2022-09-17T19:56:49.343Z,46.14
2022-09-17T20:03:34.843Z,46.21
2022-09-17T20:10:20.465Z,46.17
2022-09-17T20:17:08.525Z,46.36
2022-09-17T20:23:54.254Z,46.58
2022-09-17T20:30:39.965Z,46.56
2022-09-17T20:38:08.297Z,46.68
2022-09-17T20:44:33.312Z,46.78
2022-09-17T20:51:21.417Z,46.56
2022-09-17T20:58:09.932Z,46.84
2022-09-17T21:04:56.407Z,47.32
2022-09-17T21:11:42.488Z,47.44
2022-09-17T21:18:32.697Z,47.72
2022-09-17T21:25:20.546Z,48.35
2022-09-17T21:32:06.231Z,48.52
2022-09-17T21:38:57.889Z,48.51
2022-09-17T21:45:43.214Z,48.43
2022-09-17T21:52:28.615Z,49.00
2022-09-17T21:59:19.265Z,49.62
2022-09-17T22:06:07.250Z,49.50
2022-09-17T22:12:52.708Z,49.43
2022-09-17T22:19:40.676Z,49.63
2022-09-17T22:26:29.135Z,49.43
2022-09-17T22:33:14.489Z,49.30
2022-09-17T22:40:06.377Z,49.12
2022-09-17T22:46:54.348Z,48.98
2022-09-17T22:53:40.864Z,48.90
2022-09-17T23:00:28.838Z,49.26
2022-09-17T23:07:14.454Z,49.03
2022-09-17T23:14:02.253Z,48.87
2022-09-17T23:21:00.599Z,48.97
2022-09-17T23:27:45.952Z,48.48
2022-09-17T23:34:31.835Z,48.68
2022-09-17T23:41:22.609Z,48.41
2022-09-17T23:48:08.077Z,48.33
2022-09-17T23:54:58.228Z,48.74
